Time;durP1;ratioP1;P1;durP2;ratioP2;P2;SDS_P1;SDS_P2;PMS_P1;PMS_P2;Temp;Humidity;BMP_temperature;BMP_pressure;BME280_temperature;BME280_humidity;BME280_pressure;Samples;Min_cycle;Max_cycle;Signal;HPM_P1;HPM_P2
2022/01/20 00:01:44;;;;;;;6.63;1.17;;;25.20;94.40;;;;;;4946690;29;20039;-74
2022/01/20 00:04:33;;;;;;;2.67;0.57;;;25.30;93.80;;;;;;4938772;28;20034;-76
2022/01/20 00:25:46;;;;;;;7.40;1.57;;;24.90;94.80;;;;;;4943193;28;20075;-75
2022/01/20 00:26:21;;;;;;;8.85;1.60;;;24.70;96.20;;;;;;4941755;28;20437;-75
2022/01/20 00:28:52;;;;;;;11.25;1.67;;;24.30;97.60;;;;;;4947440;28;20137;-75
2022/01/20 00:34:32;;;;;;;4.20;1.50;;;24.00;98.40;;;;;;4887981;29;20092;-75
2022/01/20 00:37:16;;;;;;;4.95;1.80;;;24.00;98.70;;;;;;4944775;28;20049;-76
2022/01/20 00:39:43;;;;;;;10.07;1.45;;;24.00;98.20;;;;;;4955981;28;20038;-74
2022/01/20 00:42:11;;;;;;;9.52;1.35;;;24.00;98.80;;;;;;4951115;29;20115;-75
2022/01/20 00:44:39;;;;;;;9.60;1.40;;;24.00;98.80;;;;;;4942238;29;20486;-73
2022/01/20 00:47:06;;;;;;;6.35;1.25;;;23.90;98.30;;;;;;4942225;29;20061;-76
2022/01/20 00:49:34;;;;;;;6.05;1.15;;;23.90;98.20;;;;;;4949577;28;20104;-74
2022/01/20 00:52:01;;;;;;;6.00;0.80;;;23.80;98.00;;;;;;4940400;29;20076;-76
2022/01/20 00:54:29;;;;;;;11.15;1.35;;;23.80;98.00;;;;;;4924659;29;20460;-76
2022/01/20 00:56:57;;;;;;;3.53;0.80;;;23.80;97.90;;;;;;4949888;29;20023;-75
2022/01/20 00:59:26;;;;;;;6.07;1.55;;;23.70;97.90;;;;;;4960770;28;20066;-75
2022/01/20 01:01:54;;;;;;;14.18;1.17;;;23.60;98.00;;;;;;4941674;29;20122;-79
2022/01/20 01:04:21;;;;;;;10.25;1.20;;;23.20;99.70;;;;;;4952437;28;20027;-74
2022/01/20 01:09:16;;;;;;;8.20;2.85;;;22.20;99.90;;;;;;4948081;29;20024;-74
2022/01/20 01:11:45;;;;;;;10.27;1.10;;;22.10;99.90;;;;;;4949803;29;20047;-75
2022/01/20 01:14:15;;;;;;;9.00;1.40;;;22.20;99.90;;;;;;4950534;28;20035;-74
2022/01/20 01:22:20;;;;;;;7.13;1.50;;;23.10;99.90;;;;;;4947637;29;20129;-76
2022/01/20 01:24:54;;;;;;;9.57;1.58;;;23.50;99.90;;;;;;4945110;28;20433;-74
2022/01/20 01:27:24;;;;;;;15.27;1.58;;;23.90;99.90;;;;;;4947647;29;20031;-75
2022/01/20 01:32:24;;;;;;;8.20;1.60;;;24.50;99.30;;;;;;4943158;29;20027;-77
2022/01/20 01:34:53;;;;;;;12.55;1.40;;;24.80;98.90;;;;;;4941821;29;20031;-75
2022/01/20 01:40:01;;;;;;;5.65;1.60;;;24.50;98.80;;;;;;4943176;29;20360;-75
2022/01/20 01:42:36;;;;;;;11.57;1.40;;;24.30;98.80;;;;;;4946067;28;20463;-74
2022/01/20 01:45:20;;;;;;;6.50;0.80;;;23.80;99.90;;;;;;4958566;28;20034;-74
2022/01/20 01:47:47;;;;;;;9.73;2.60;;;23.10;99.90;;;;;;4952172;28;20551;-74
2022/01/20 01:50:15;;;;;;;11.18;2.53;;;22.60;99.90;;;;;;4946777;28;20102;-75
2022/01/20 01:52:43;;;;;;;8.15;2.90;;;22.10;99.90;;;;;;4949308;29;20713;-74
2022/01/20 01:55:11;;;;;;;11.48;2.55;;;21.90;99.90;;;;;;4945589;28;20035;-74
2022/01/20 01:57:38;;;;;;;8.85;1.40;;;21.70;99.90;;;;;;4948203;28;20051;-74
2022/01/20 02:00:08;;;;;;;6.38;2.05;;;21.80;99.90;;;;;;4950238;29;20027;-74
2022/01/20 02:02:36;;;;;;;10.45;1.55;;;22.20;99.90;;;;;;4947230;28;20109;-75
2022/01/20 02:05:05;;;;;;;9.48;1.73;;;22.60;99.90;;;;;;4953223;29;20023;-74
2022/01/20 02:08:11;;;;;;;8.52;2.58;;;23.00;99.90;;;;;;4948258;28;20023;-74
2022/01/20 02:19:13;;;;;;;13.05;2.28;;;24.10;99.90;;;;;;4946146;29;20037;-75
2022/01/20 02:21:56;;;;;;;7.05;2.38;;;24.20;99.90;;;;;;4948306;28;20027;-77
2022/01/20 02:24:24;;;;;;;12.18;2.08;;;24.40;99.90;;;;;;4951568;28;20030;-73
2022/01/20 02:26:51;;;;;;;8.95;1.45;;;24.50;99.90;;;;;;4956882;28;20023;-76
2022/01/20 02:29:19;;;;;;;10.32;1.88;;;24.60;98.30;;;;;;4952859;28;20429;-74
2022/01/20 02:31:47;;;;;;;11.63;1.65;;;24.70;98.50;;;;;;4952860;28;20027;-74
2022/01/20 02:34:16;;;;;;;12.27;2.03;;;24.90;97.70;;;;;;4954776;28;20138;-74
2022/01/20 02:36:46;;;;;;;7.65;1.90;;;24.90;97.60;;;;;;4941589;29;20047;-75
2022/01/20 02:44:54;;;;;;;6.00;0.98;;;25.00;96.50;;;;;;4952133;29;20038;-74
2022/01/20 02:47:29;;;;;;;14.13;1.42;;;24.90;95.20;;;;;;4951915;29;20042;-74
2022/01/20 02:49:57;;;;;;;8.03;1.23;;;24.90;95.80;;;;;;4955741;28;20024;-75
2022/01/20 02:52:25;;;;;;;5.20;1.77;;;24.90;95.50;;;;;;4951160;29;20118;-76
2022/01/20 02:54:57;;;;;;;10.00;1.13;;;24.80;95.20;;;;;;4940073;29;20123;-77
2022/01/20 02:57:25;;;;;;;9.55;2.25;;;24.50;95.10;;;;;;4942303;28;20602;-74
2022/01/20 02:59:53;;;;;;;8.95;1.20;;;24.20;94.80;;;;;;4950185;28;20421;-75
2022/01/20 03:02:20;;;;;;;11.45;1.98;;;24.20;95.00;;;;;;4950591;28;20406;-75
2022/01/20 03:04:49;;;;;;;7.05;2.67;;;24.20;94.50;;;;;;4943213;29;20039;-76
2022/01/20 03:07:17;;;;;;;12.30;1.30;;;24.30;94.60;;;;;;4951806;28;20541;-76
2022/01/20 03:09:44;;;;;;;12.02;1.35;;;24.50;94.40;;;;;;4945860;28;20027;-76
2022/01/20 03:12:11;;;;;;;7.00;1.55;;;24.70;94.70;;;;;;4935763;29;20048;-76
2022/01/20 03:14:39;;;;;;;6.70;1.25;;;24.70;94.70;;;;;;4947176;28;20030;-76
2022/01/20 03:17:06;;;;;;;5.13;1.38;;;24.90;94.60;;;;;;4948350;28;20039;-75
2022/01/20 03:19:34;;;;;;;7.32;0.63;;;24.80;94.20;;;;;;4942558;28;20541;-77
2022/01/20 03:22:01;;;;;;;6.53;1.40;;;24.70;94.60;;;;;;4925500;29;20167;-75
2022/01/20 03:24:29;;;;;;;5.97;1.00;;;24.70;94.00;;;;;;4945412;28;20050;-78
2022/01/20 03:26:56;;;;;;;8.25;1.17;;;25.00;94.10;;;;;;4941252;28;20023;-75
2022/01/20 03:29:23;;;;;;;8.30;1.05;;;25.70;93.40;;;;;;4950046;28;20023;-76
2022/01/20 03:31:51;;;;;;;3.80;1.10;;;26.40;93.10;;;;;;4944686;28;20491;-76
2022/01/20 03:34:21;;;;;;;7.72;1.65;;;26.80;92.80;;;;;;4948529;28;20057;-76
2022/01/20 03:36:49;;;;;;;10.95;1.45;;;27.20;92.90;;;;;;4946753;28;20058;-76
2022/01/20 03:39:17;;;;;;;6.32;1.65;;;27.60;93.20;;;;;;4944093;29;20034;-77
2022/01/20 03:41:44;;;;;;;6.05;1.00;;;27.50;93.00;;;;;;4953463;28;20047;-76
2022/01/20 03:44:12;;;;;;;6.90;1.30;;;26.90;92.60;;;;;;4951257;28;20082;-77
2022/01/20 03:46:39;;;;;;;8.05;1.23;;;26.50;93.50;;;;;;4949445;28;20035;-77
2022/01/20 03:49:24;;;;;;;7.43;1.27;;;26.90;94.10;;;;;;4951211;28;20126;-77
2022/01/20 03:51:52;;;;;;;9.50;2.17;;;27.20;92.40;;;;;;4949171;29;20453;-76
2022/01/20 03:54:20;;;;;;;7.70;1.40;;;27.60;91.40;;;;;;4934957;29;20059;-76
2022/01/20 03:56:47;;;;;;;7.28;1.10;;;28.00;91.60;;;;;;4941861;28;20041;-75
2022/01/20 03:59:14;;;;;;;8.00;1.35;;;28.40;92.00;;;;;;4951399;28;20027;-76
2022/01/20 04:01:42;;;;;;;5.75;1.30;;;28.40;92.00;;;;;;4946880;29;20035;-75
2022/01/20 04:04:09;;;;;;;7.68;1.40;;;28.30;91.90;;;;;;4936362;29;20054;-77
2022/01/20 04:06:37;;;;;;;4.88;0.80;;;28.00;90.50;;;;;;4944063;29;20039;-75
2022/01/20 04:09:04;;;;;;;5.97;1.13;;;27.50;91.40;;;;;;4949128;28;20042;-75
2022/01/20 04:11:32;;;;;;;6.50;1.92;;;27.10;91.20;;;;;;4947849;29;20133;-76
2022/01/20 04:14:03;;;;;;;5.50;0.98;;;26.70;91.70;;;;;;4925543;28;20394;-76
2022/01/20 04:16:39;;;;;;;5.40;1.25;;;26.30;92.10;;;;;;4949053;29;20047;-76
2022/01/20 04:19:10;;;;;;;8.02;1.35;;;26.10;92.40;;;;;;4952582;29;20042;-78
2022/01/20 04:21:40;;;;;;;6.53;1.20;;;26.10;92.00;;;;;;4950993;29;20038;-76
2022/01/20 04:24:09;;;;;;;5.50;0.90;;;26.30;92.50;;;;;;4946610;29;20027;-77
2022/01/20 04:26:38;;;;;;;8.15;1.00;;;26.50;92.40;;;;;;4941287;28;20028;-76
2022/01/20 04:29:07;;;;;;;8.23;1.75;;;26.50;92.30;;;;;;4946512;28;20059;-75
2022/01/20 04:31:36;;;;;;;7.57;1.15;;;26.30;92.00;;;;;;4954136;28;20020;-75
2022/01/20 04:34:05;;;;;;;4.82;0.60;;;26.50;92.20;;;;;;4947901;29;20395;-76
2022/01/20 04:36:36;;;;;;;5.75;1.15;;;26.30;92.00;;;;;;4943413;28;20035;-75
2022/01/20 04:39:07;;;;;;;6.47;1.00;;;26.10;93.10;;;;;;4945767;29;20110;-76
2022/01/20 04:41:35;;;;;;;5.50;1.88;;;26.00;92.90;;;;;;4949981;29;20027;-76
2022/01/20 04:44:08;;;;;;;8.55;1.52;;;25.80;93.30;;;;;;4951172;28;20043;-76
2022/01/20 04:57:22;;;;;;;11.13;1.40;;;26.00;93.10;;;;;;4949184;29;20046;-76
2022/01/20 04:59:51;;;;;;;9.27;1.38;;;26.30;93.10;;;;;;4950436;28;20156;-76
2022/01/20 05:02:19;;;;;;;5.10;2.20;;;26.30;92.70;;;;;;4925977;29;20047;-75
2022/01/20 05:04:46;;;;;;;8.35;2.22;;;26.10;93.60;;;;;;4954360;28;20090;-75
2022/01/20 05:07:24;;;;;;;4.85;0.90;;;25.80;93.70;;;;;;4949094;28;20063;-76
2022/01/20 05:09:54;;;;;;;9.20;0.80;;;25.60;94.50;;;;;;4953779;28;20031;-79
2022/01/20 05:12:29;;;;;;;5.35;1.92;;;25.40;94.20;;;;;;4949484;28;20031;-75
2022/01/20 05:14:57;;;;;;;5.80;1.23;;;25.20;94.20;;;;;;4966040;28;20089;-77
2022/01/20 05:17:24;;;;;;;10.68;1.55;;;25.10;94.20;;;;;;4952143;28;20524;-76
2022/01/20 05:19:52;;;;;;;9.00;1.25;;;25.00;94.50;;;;;;4955898;28;20037;-75
2022/01/20 05:22:19;;;;;;;7.25;1.60;;;25.00;95.30;;;;;;4947746;28;20023;-74
2022/01/20 05:24:46;;;;;;;7.93;1.20;;;24.70;95.40;;;;;;4954818;29;20058;-75
2022/01/20 05:27:14;;;;;;;7.25;1.23;;;25.20;95.60;;;;;;4954072;28;20078;-76
2022/01/20 05:29:41;;;;;;;8.13;2.03;;;25.20;95.40;;;;;;4974414;28;20035;-73
2022/01/20 05:32:08;;;;;;;3.47;0.93;;;24.80;95.30;;;;;;4954717;28;20490;-77
2022/01/20 05:34:36;;;;;;;8.00;1.45;;;24.40;95.50;;;;;;4941004;29;20035;-75
2022/01/20 05:37:03;;;;;;;7.60;1.05;;;24.10;96.10;;;;;;4949888;28;20614;-75
2022/01/20 05:39:31;;;;;;;8.40;1.17;;;24.20;96.20;;;;;;4948849;28;20102;-76
2022/01/20 05:41:59;;;;;;;6.82;0.98;;;24.30;96.60;;;;;;4947409;29;20055;-76
2022/01/20 05:44:26;;;;;;;4.38;1.17;;;24.40;96.10;;;;;;4946499;28;20454;-76
2022/01/20 05:46:54;;;;;;;4.93;0.75;;;24.10;95.90;;;;;;4953169;28;20147;-75
2022/01/20 05:49:21;;;;;;;8.82;1.85;;;23.90;96.30;;;;;;4943123;29;20232;-75
2022/01/20 05:51:55;;;;;;;8.55;1.55;;;23.80;96.30;;;;;;4946394;28;20069;-74
2022/01/20 05:54:23;;;;;;;8.95;1.20;;;24.00;96.90;;;;;;4946295;29;20103;-75
2022/01/20 05:56:51;;;;;;;7.72;1.45;;;24.10;96.90;;;;;;4949186;28;20058;-75
2022/01/20 05:59:20;;;;;;;10.82;1.20;;;24.10;97.10;;;;;;4948646;28;20066;-76
2022/01/20 06:01:54;;;;;;;11.80;3.45;;;24.00;97.30;;;;;;4949555;28;20082;-75
2022/01/20 06:04:23;;;;;;;14.63;1.60;;;23.80;97.70;;;;;;4945625;28;20034;-76
2022/01/20 06:06:50;;;;;;;9.38;1.75;;;23.70;97.70;;;;;;4948594;28;20046;-77
2022/01/20 06:09:17;;;;;;;12.07;1.70;;;23.50;97.80;;;;;;4951819;28;20065;-75
2022/01/20 06:11:45;;;;;;;8.15;1.52;;;23.50;98.20;;;;;;4948671;29;20048;-76
2022/01/20 06:14:12;;;;;;;5.47;1.30;;;23.20;98.30;;;;;;4936618;29;20095;-76
2022/01/20 06:16:41;;;;;;;6.57;1.02;;;23.50;99.00;;;;;;4947649;28;20035;-76
2022/01/20 06:19:09;;;;;;;7.80;2.00;;;23.80;97.80;;;;;;4939721;28;20054;-74
2022/01/20 06:21:37;;;;;;;8.55;1.77;;;24.00;97.50;;;;;;4952126;29;20050;-77
2022/01/20 06:24:05;;;;;;;8.02;1.27;;;24.10;97.60;;;;;;4954356;28;20170;-76
2022/01/20 06:26:32;;;;;;;8.18;1.75;;;24.30;97.10;;;;;;4951667;28;20423;-76
2022/01/20 06:29:00;;;;;;;8.90;1.20;;;24.60;97.30;;;;;;4942456;29;20406;-76
2022/01/20 06:31:27;;;;;;;5.07;1.23;;;24.70;95.70;;;;;;4949481;28;20055;-78
2022/01/20 06:33:54;;;;;;;9.55;1.60;;;24.20;95.20;;;;;;4944910;28;20423;-75
2022/01/20 06:36:22;;;;;;;8.40;1.45;;;23.80;95.40;;;;;;4944785;28;20343;-74
2022/01/20 06:38:49;;;;;;;3.80;1.08;;;23.60;95.70;;;;;;4953691;29;20047;-74
2022/01/20 06:41:17;;;;;;;9.57;1.33;;;23.50;95.90;;;;;;4952210;28;20050;-74
2022/01/20 06:43:45;;;;;;;5.20;0.80;;;23.50;95.80;;;;;;4953414;28;20122;-74
2022/01/20 06:46:12;;;;;;;7.97;2.38;;;23.80;95.50;;;;;;4951484;28;20023;-76
2022/01/20 06:48:39;;;;;;;6.03;1.25;;;24.10;95.20;;;;;;4961566;28;20085;-83
2022/01/20 06:51:07;;;;;;;6.78;1.20;;;24.30;94.80;;;;;;4952741;28;20027;-76
2022/01/20 06:53:34;;;;;;;4.68;1.60;;;24.40;94.90;;;;;;4940897;29;20581;-79
2022/01/20 06:56:01;;;;;;;10.35;1.80;;;24.40;94.60;;;;;;4946977;29;20035;-75
2022/01/20 06:58:29;;;;;;;8.00;2.45;;;24.40;94.70;;;;;;4934305;28;20497;-76
2022/01/20 07:00:56;;;;;;;7.18;1.83;;;24.50;94.90;;;;;;4934356;29;20114;-75
2022/01/20 07:03:23;;;;;;;12.10;2.45;;;24.50;94.70;;;;;;4947166;29;20366;-77
2022/01/20 07:05:51;;;;;;;12.52;2.58;;;24.20;94.80;;;;;;4950402;28;20054;-75
2022/01/20 07:08:18;;;;;;;8.35;2.30;;;24.00;94.80;;;;;;4942850;28;20083;-75
2022/01/20 07:10:45;;;;;;;8.95;1.63;;;24.00;95.00;;;;;;4941943;29;20123;-75
2022/01/20 07:13:12;;;;;;;7.65;1.23;;;24.00;94.70;;;;;;4936567;29;20166;-75
2022/01/20 07:15:40;;;;;;;6.47;1.25;;;23.80;94.40;;;;;;4937995;29;20036;-76
2022/01/20 07:18:07;;;;;;;6.80;1.30;;;23.70;94.50;;;;;;4935222;28;20040;-74
2022/01/20 07:20:35;;;;;;;12.23;1.60;;;23.60;94.80;;;;;;4948544;28;20027;-75
2022/01/20 07:23:02;;;;;;;14.38;2.25;;;23.60;94.80;;;;;;4945975;29;20035;-77
2022/01/20 07:25:29;;;;;;;8.40;1.50;;;23.50;94.90;;;;;;4935701;29;20115;-76
2022/01/20 07:27:57;;;;;;;7.60;1.80;;;23.50;94.80;;;;;;4949785;28;20114;-76
2022/01/20 07:30:24;;;;;;;6.78;1.00;;;23.20;94.90;;;;;;4944917;28;20024;-80
2022/01/20 07:32:51;;;;;;;12.82;1.50;;;23.10;95.00;;;;;;4951993;28;20528;-77
2022/01/20 07:35:19;;;;;;;6.82;1.70;;;23.00;94.90;;;;;;4952475;28;20433;-77
2022/01/20 07:37:47;;;;;;;7.82;1.05;;;23.10;94.90;;;;;;4952337;28;20054;-78
2022/01/20 07:40:14;;;;;;;11.27;1.30;;;23.20;94.80;;;;;;4959181;28;20024;-78
2022/01/20 07:42:42;;;;;;;7.85;1.25;;;23.20;94.60;;;;;;4950917;29;20063;-78
2022/01/20 07:45:10;;;;;;;6.80;1.65;;;23.20;94.50;;;;;;4952849;28;20042;-78
2022/01/20 07:47:37;;;;;;;7.47;1.25;;;23.20;94.20;;;;;;4939518;28;20384;-77
2022/01/20 07:50:05;;;;;;;9.93;2.35;;;23.20;94.50;;;;;;4933969;29;20024;-77
2022/01/20 07:52:32;;;;;;;13.50;1.77;;;23.20;94.90;;;;;;4942849;29;20554;-78
2022/01/20 07:55:00;;;;;;;6.97;1.70;;;23.20;95.50;;;;;;4956229;28;20088;-78
2022/01/20 07:57:27;;;;;;;9.27;1.65;;;23.20;95.70;;;;;;4955732;28;20050;-79
2022/01/20 07:59:54;;;;;;;12.73;1.77;;;23.10;95.60;;;;;;4944566;29;20466;-79
2022/01/20 08:02:22;;;;;;;8.73;1.92;;;23.10;95.90;;;;;;4944813;29;20034;-78
2022/01/20 08:04:49;;;;;;;11.38;1.38;;;23.10;95.70;;;;;;4950533;28;20023;-78
2022/01/20 08:07:17;;;;;;;12.13;1.60;;;23.30;96.00;;;;;;4939740;29;20031;-80
2022/01/20 08:09:45;;;;;;;8.93;1.70;;;23.40;95.60;;;;;;4936408;29;20063;-77
2022/01/20 08:12:12;;;;;;;7.03;1.05;;;23.30;95.30;;;;;;4956095;28;20460;-78
2022/01/20 08:14:40;;;;;;;7.50;1.65;;;23.30;95.40;;;;;;4938445;29;20023;-78
2022/01/20 08:17:07;;;;;;;10.00;1.33;;;23.20;95.70;;;;;;4946137;28;20080;-79
2022/01/20 08:19:34;;;;;;;11.02;1.98;;;23.10;95.20;;;;;;4944126;29;20111;-79
2022/01/20 08:22:02;;;;;;;10.77;1.67;;;23.00;95.70;;;;;;4935044;29;20045;-79
2022/01/20 08:24:29;;;;;;;10.88;1.77;;;23.00;95.50;;;;;;4945096;29;20398;-79
2022/01/20 08:26:56;;;;;;;7.32;1.40;;;22.80;95.60;;;;;;4942734;29;20038;-80
2022/01/20 08:29:24;;;;;;;15.43;1.95;;;22.60;95.80;;;;;;4948081;28;20397;-79
2022/01/20 08:31:51;;;;;;;5.57;1.27;;;22.50;95.50;;;;;;4944316;28;20034;-79
2022/01/20 08:34:19;;;;;;;9.57;1.25;;;22.40;95.80;;;;;;4934982;29;20478;-79
2022/01/20 08:36:46;;;;;;;7.03;2.53;;;22.40;96.10;;;;;;4950952;29;20354;-79
2022/01/20 08:42:15;;;;;;;13.70;1.70;;;22.30;95.80;;;;;;5069185;27;20430;-78
2022/01/20 08:44:43;;;;;;;9.55;1.65;;;22.20;96.10;;;;;;5070717;28;20028;-78
2022/01/20 08:47:16;;;;;;;9.20;1.60;;;22.10;96.10;;;;;;5075168;28;20086;-78
2022/01/20 08:49:48;;;;;;;3.83;1.25;;;22.10;96.50;;;;;;5068250;28;20036;-78
2022/01/20 08:52:20;;;;;;;9.18;1.48;;;21.90;96.50;;;;;;5075345;28;20111;-77
2022/01/20 08:54:47;;;;;;;14.82;2.42;;;21.90;96.80;;;;;;5071245;28;20032;-78
2022/01/20 08:57:15;;;;;;;11.90;1.98;;;21.80;97.10;;;;;;5078106;28;20036;-78
2022/01/20 08:59:43;;;;;;;7.13;1.70;;;21.80;97.40;;;;;;5073210;28;20021;-79
2022/01/20 09:02:11;;;;;;;13.23;1.85;;;21.70;97.60;;;;;;5066797;28;20047;-78
2022/01/20 09:04:39;;;;;;;9.63;2.78;;;21.70;98.10;;;;;;5077388;28;20063;-78
2022/01/20 09:07:07;;;;;;;8.30;2.45;;;21.60;98.20;;;;;;5075466;28;20032;-78
2022/01/20 09:09:40;;;;;;;10.82;2.05;;;21.60;98.50;;;;;;5081240;28;20222;-79
2022/01/20 09:17:26;;;;;;;7.18;1.42;;;21.50;99.80;;;;;;5077360;28;20108;-78
2022/01/20 09:19:54;;;;;;;8.40;1.85;;;21.40;99.90;;;;;;5083920;28;20028;-77
2022/01/20 09:22:22;;;;;;;9.77;1.33;;;21.40;99.90;;;;;;5066531;28;20124;-78
2022/01/20 09:24:49;;;;;;;10.73;2.72;;;21.40;99.90;;;;;;5084199;28;20027;-78
2022/01/20 09:27:18;;;;;;;11.20;1.85;;;21.30;99.90;;;;;;5080364;28;20036;-78
2022/01/20 09:29:46;;;;;;;6.30;1.52;;;21.20;99.90;;;;;;5073204;28;20020;-79
2022/01/20 09:32:16;;;;;;;9.48;1.13;;;21.20;99.90;;;;;;5079646;28;20028;-78
2022/01/20 09:34:43;;;;;;;13.35;1.48;;;21.10;99.90;;;;;;5085229;28;20036;-79
2022/01/20 09:37:12;;;;;;;5.93;1.08;;;21.10;99.90;;;;;;5078270;28;20046;-78
2022/01/20 09:39:40;;;;;;;11.63;2.47;;;21.10;99.90;;;;;;5075328;28;20471;-78
2022/01/20 09:42:08;;;;;;;20.27;2.05;;;21.00;99.90;;;;;;5071805;28;20041;-76
2022/01/20 09:44:36;;;;;;;7.70;1.25;;;21.00;99.90;;;;;;5065920;28;20026;-74
2022/01/20 09:47:04;;;;;;;10.80;1.70;;;20.90;99.90;;;;;;5079285;28;20039;-74
2022/01/20 09:49:31;;;;;;;12.23;1.73;;;21.00;99.90;;;;;;5077924;28;20017;-74
2022/01/20 09:51:59;;;;;;;13.75;1.90;;;21.10;99.90;;;;;;5074070;28;20391;-76
2022/01/20 09:54:26;;;;;;;13.80;2.90;;;21.10;99.90;;;;;;5063937;28;20140;-76
2022/01/20 09:56:55;;;;;;;11.60;1.40;;;21.10;99.90;;;;;;5063575;28;20364;-75
2022/01/20 09:59:23;;;;;;;7.85;1.85;;;21.20;99.90;;;;;;5062379;28;20375;-76
2022/01/20 10:01:56;;;;;;;14.07;2.17;;;21.20;99.90;;;;;;5064352;28;20036;-75
2022/01/20 10:04:26;;;;;;;14.80;1.48;;;21.20;99.90;;;;;;5055889;28;20397;-75
2022/01/20 10:07:08;;;;;;;13.50;1.80;;;21.20;99.90;;;;;;5068575;28;20024;-76
2022/01/20 10:09:41;;;;;;;8.32;2.53;;;21.10;99.90;;;;;;5061332;28;20045;-75
2022/01/20 10:12:10;;;;;;;9.27;2.78;;;21.10;99.90;;;;;;5058620;28;20079;-76
2022/01/20 10:14:58;;;;;;;10.25;1.70;;;21.10;99.90;;;;;;5063855;28;20089;-76
2022/01/20 10:17:31;;;;;;;10.02;1.23;;;21.20;99.90;;;;;;5067834;28;20043;-79
2022/01/20 10:20:08;;;;;;;11.18;1.92;;;21.30;99.90;;;;;;5058957;28;20044;-76
2022/01/20 10:22:37;;;;;;;10.38;2.00;;;21.30;99.90;;;;;;5069847;28;20079;-77
2022/01/20 10:25:14;;;;;;;7.60;1.20;;;21.30;99.90;;;;;;5067980;28;20104;-78
2022/01/20 10:27:52;;;;;;;10.88;1.58;;;21.20;99.90;;;;;;5055023;28;20028;-75
2022/01/20 10:30:24;;;;;;;15.50;1.98;;;21.10;99.90;;;;;;5060448;28;20036;-75
2022/01/20 10:32:55;;;;;;;11.02;1.80;;;21.20;99.90;;;;;;5055923;28;20673;-74
2022/01/20 10:35:34;;;;;;;8.38;1.23;;;21.10;99.90;;;;;;5057993;28;20199;-75
2022/01/20 10:38:12;;;;;;;15.43;2.90;;;21.20;99.90;;;;;;5062568;28;20112;-75
2022/01/20 10:40:51;;;;;;;11.02;1.90;;;21.20;99.90;;;;;;5064867;28;20471;-74
2022/01/20 10:43:38;;;;;;;15.73;2.17;;;21.10;99.90;;;;;;5067771;28;20028;-76
2022/01/20 10:46:11;;;;;;;10.27;1.77;;;21.10;99.90;;;;;;5058701;28;20114;-77
2022/01/20 10:48:40;;;;;;;9.88;1.00;;;21.00;99.90;;;;;;5067008;28;20386;-75
2022/01/20 10:51:21;;;;;;;28.20;2.72;;;21.10;99.90;;;;;;5067913;28;20032;-76
2022/01/20 10:54:10;;;;;;;7.13;1.48;;;21.10;99.90;;;;;;5065224;28;20119;-76
2022/01/20 10:57:08;;;;;;;8.00;2.45;;;21.10;99.90;;;;;;5056919;28;20044;-77
2022/01/20 10:59:47;;;;;;;11.60;2.10;;;21.00;99.90;;;;;;5049159;28;20428;-74
2022/01/20 11:02:16;;;;;;;8.27;1.02;;;21.00;99.90;;;;;;5065132;28;20069;-74
2022/01/20 11:04:44;;;;;;;9.05;1.80;;;20.90;99.90;;;;;;5065645;28;20040;-75
2022/01/20 11:07:12;;;;;;;7.97;1.75;;;20.90;99.90;;;;;;5063124;28;20146;-73
2022/01/20 11:09:43;;;;;;;6.40;1.70;;;20.80;99.90;;;;;;5064896;28;20052;-76
2022/01/20 11:12:15;;;;;;;12.88;1.55;;;20.80;99.90;;;;;;5055832;28;20112;-76
2022/01/20 11:14:45;;;;;;;6.38;1.63;;;20.80;99.90;;;;;;5057157;28;20475;-75
2022/01/20 11:17:24;;;;;;;11.55;1.48;;;20.70;99.90;;;;;;5060255;28;20108;-75
2022/01/20 11:19:52;;;;;;;8.75;2.03;;;20.70;99.90;;;;;;5062693;28;20020;-81
2022/01/20 11:22:21;;;;;;;7.57;1.60;;;20.60;99.90;;;;;;5067357;28;20032;-75
2022/01/20 11:25:00;;;;;;;11.05;2.65;;;20.60;99.90;;;;;;5067791;28;20110;-75
2022/01/20 11:27:41;;;;;;;8.02;2.30;;;20.60;99.90;;;;;;5060089;28;20064;-75
2022/01/20 11:30:29;;;;;;;8.23;1.33;;;20.60;99.90;;;;;;5063313;28;20017;-75
2022/01/20 11:33:16;;;;;;;13.15;2.00;;;20.50;99.90;;;;;;5054956;28;20441;-76
2022/01/20 11:35:47;;;;;;;7.43;1.13;;;20.50;99.90;;;;;;5059719;28;20025;-75
2022/01/20 11:38:19;;;;;;;8.57;1.38;;;20.50;99.90;;;;;;5061021;28;20142;-76
2022/01/20 11:40:53;;;;;;;7.18;1.33;;;20.50;99.90;;;;;;5061483;28;20068;-76
2022/01/20 11:43:31;;;;;;;9.73;1.20;;;20.40;99.90;;;;;;5063911;28;20475;-77
2022/01/20 11:46:11;;;;;;;7.00;1.63;;;20.40;99.90;;;;;;5063561;28;20343;-75
2022/01/20 11:48:57;;;;;;;13.68;2.90;;;20.30;99.90;;;;;;5059277;28;20782;-76
2022/01/20 11:51:30;;;;;;;8.25;1.92;;;20.40;99.90;;;;;;5064046;28;20024;-76
2022/01/20 11:54:05;;;;;;;8.55;2.50;;;20.30;99.90;;;;;;5060675;28;20105;-76
2022/01/20 11:56:39;;;;;;;6.28;1.38;;;20.30;99.90;;;;;;5058179;28;20054;-74
2022/01/20 11:59:09;;;;;;;8.43;1.75;;;20.30;99.90;;;;;;5057865;28;21021;-76
2022/01/20 12:01:55;;;;;;;13.77;1.92;;;20.30;99.90;;;;;;5057929;28;20047;-75
2022/01/20 12:04:37;;;;;;;8.60;1.13;;;20.30;99.90;;;;;;5060872;28;20060;-75
2022/01/20 12:07:05;;;;;;;13.63;2.10;;;20.30;99.90;;;;;;5049776;28;20578;-76
2022/01/20 12:09:40;;;;;;;13.52;2.47;;;20.30;99.90;;;;;;5049929;28;20031;-75
2022/01/20 12:12:22;;;;;;;12.40;2.10;;;20.30;99.90;;;;;;5054878;28;20031;-74
2022/01/20 12:14:50;;;;;;;17.83;2.53;;;20.40;99.90;;;;;;5065324;28;20055;-74
2022/01/20 12:17:17;;;;;;;8.40;1.55;;;20.40;99.90;;;;;;5063874;28;20368;-74
2022/01/20 12:19:56;;;;;;;7.95;1.83;;;20.30;99.90;;;;;;5055028;28;20124;-76
2022/01/20 12:22:23;;;;;;;8.82;1.45;;;20.30;99.90;;;;;;5059480;28;20045;-75
2022/01/20 12:24:56;;;;;;;8.93;1.73;;;20.20;99.90;;;;;;5061439;28;20016;-74
2022/01/20 12:27:25;;;;;;;8.20;2.08;;;20.20;99.90;;;;;;5061361;28;20033;-75
2022/01/20 12:29:53;;;;;;;6.68;1.40;;;20.20;99.90;;;;;;5065456;28;20376;-75
2022/01/20 12:32:24;;;;;;;10.55;2.47;;;20.20;99.90;;;;;;5062976;28;20116;-75
2022/01/20 12:34:59;;;;;;;5.90;1.30;;;20.10;99.90;;;;;;5060312;28;20056;-74
2022/01/20 12:37:41;;;;;;;11.05;1.73;;;20.10;99.90;;;;;;5061688;28;20029;-74
2022/01/20 12:40:17;;;;;;;15.35;3.65;;;20.10;99.90;;;;;;5064577;28;20044;-75
2022/01/20 12:42:45;;;;;;;11.23;1.58;;;20.10;99.90;;;;;;5055962;28;20518;-75
2022/01/20 12:48:12;;;;;;;16.98;2.17;;;20.10;99.90;;;;;;5059412;28;20484;-74
2022/01/20 12:50:49;;;;;;;12.82;1.70;;;20.00;99.90;;;;;;5052172;28;20178;-75
2022/01/20 12:53:18;;;;;;;9.93;1.73;;;20.00;99.90;;;;;;5055405;28;20470;-74
2022/01/20 12:55:52;;;;;;;9.65;1.80;;;20.00;99.90;;;;;;5068522;28;20262;-75
2022/01/20 12:58:20;;;;;;;10.48;2.22;;;20.00;99.90;;;;;;5055517;28;20029;-74
2022/01/20 13:01:03;;;;;;;14.02;3.53;;;20.00;99.90;;;;;;5060259;28;20391;-74
2022/01/20 13:03:36;;;;;;;9.43;2.13;;;20.10;99.90;;;;;;5053897;28;20097;-74
2022/01/20 13:06:06;;;;;;;9.32;1.83;;;20.10;99.90;;;;;;5052460;28;20210;-73
2022/01/20 13:08:38;;;;;;;17.80;2.25;;;20.00;99.90;;;;;;5064235;28;20093;-74
2022/01/20 13:11:17;;;;;;;10.25;1.77;;;19.90;99.90;;;;;;5062146;28;20044;-74
2022/01/20 13:13:53;;;;;;;8.98;2.03;;;19.90;99.90;;;;;;5059692;28;20116;-73
2022/01/20 13:16:20;;;;;;;15.32;2.78;;;19.80;99.90;;;;;;5051097;28;20040;-73
2022/01/20 13:18:58;;;;;;;5.97;2.13;;;19.80;99.90;;;;;;5059214;28;20033;-74
2022/01/20 13:21:38;;;;;;;7.15;1.83;;;19.70;99.90;;;;;;5062080;28;20060;-74
2022/01/20 13:24:08;;;;;;;11.75;1.88;;;19.60;99.90;;;;;;5061947;28;20036;-74
2022/01/20 13:26:50;;;;;;;7.80;1.70;;;19.60;99.90;;;;;;5066457;28;20088;-75
2022/01/20 13:29:19;;;;;;;17.40;2.10;;;19.60;99.90;;;;;;5062557;28;20512;-75
2022/01/20 13:31:51;;;;;;;10.88;2.03;;;19.60;99.90;;;;;;5062168;28;20330;-75
2022/01/20 13:34:20;;;;;;;14.02;2.10;;;19.60;99.90;;;;;;5070984;28;20475;-75
2022/01/20 13:36:51;;;;;;;9.40;2.15;;;19.50;99.90;;;;;;5063646;28;20556;-76
2022/01/20 13:39:40;;;;;;;17.48;2.20;;;19.50;99.90;;;;;;5069799;28;20364;-77
2022/01/20 13:45:17;;;;;;;7.55;2.28;;;19.40;99.90;;;;;;5070106;28;20034;-78
2022/01/20 13:47:54;;;;;;;;;;;19.30;99.90;;;;;;5065208;28;20033;-78
2022/01/20 13:50:43;;;;;;;4.93;0.90;;;19.20;99.90;;;;;;5055530;28;20258;-78
2022/01/20 13:53:13;;;;;;;7.07;2.72;;;19.10;99.90;;;;;;5064591;28;20073;-78
2022/01/20 13:55:43;;;;;;;10.88;2.53;;;19.00;99.90;;;;;;5065284;28;20032;-78
2022/01/20 13:58:28;;;;;;;16.00;2.15;;;19.00;99.90;;;;;;5070830;28;20436;-75
2022/01/20 14:00:57;;;;;;;8.02;2.88;;;19.00;99.90;;;;;;5071289;28;20411;-76
2022/01/20 14:03:25;;;;;;;7.68;1.65;;;18.90;99.90;;;;;;5057856;28;20025;-76
2022/01/20 14:05:55;;;;;;;5.80;1.40;;;18.90;99.90;;;;;;5070571;28;20442;-77
2022/01/20 14:08:23;;;;;;;10.70;1.23;;;18.90;99.90;;;;;;5064398;28;20036;-76
2022/01/20 14:10:51;;;;;;;12.18;2.08;;;18.80;99.90;;;;;;5062744;28;20044;-77
2022/01/20 14:13:19;;;;;;;12.38;1.33;;;18.80;99.90;;;;;;5060354;28;20025;-78